Time;durP1;ratioP1;P1;durP2;ratioP2;P2;SDS_P1;SDS_P2;PMS_P1;PMS_P2;Temp;Humidity;BMP_temperature;BMP_pressure;BME280_temperature;BME280_humidity;BME280_pressure;Samples;Min_cycle;Max_cycle;Signal;HPM_P1;HPM_P2
2022/11/28 00:01:28;;;;;;;;;;;3.40;76.10;;;;;;5044256;28;87318;-39
2022/11/28 00:03:53;;;;;;;;;;;3.40;76.00;;;;;;5044869;28;87199;-39
2022/11/28 00:06:19;;;;;;;;;;;3.40;75.80;;;;;;5044876;27;87379;-39
2022/11/28 00:08:44;;;;;;;;;;;3.40;75.80;;;;;;5047372;28;87928;-39
2022/11/28 00:11:11;;;;;;;;;;;3.40;75.90;;;;;;5044477;28;87442;-39
2022/11/28 00:13:37;;;;;;;;;;;3.40;76.00;;;;;;5044168;28;88221;-39
2022/11/28 00:16:04;;;;;;;;;;;3.40;76.00;;;;;;5045246;28;86354;-39
2022/11/28 00:18:30;;;;;;;;;;;3.40;75.90;;;;;;5044344;27;86868;-39
2022/11/28 00:20:59;;;;;;;;;;;3.40;75.90;;;;;;5044232;28;87168;-39
2022/11/28 00:23:25;;;;;;;;;;;3.40;75.90;;;;;;5043910;28;88507;-39
2022/11/28 00:25:57;;;;;;;;;;;3.40;75.90;;;;;;5044630;28;88612;-39
2022/11/28 00:28:22;;;;;;;;;;;3.40;75.80;;;;;;5043563;28;89368;-39
2022/11/28 00:30:48;;;;;;;;;;;3.40;76.10;;;;;;5047329;28;86929;-39
2022/11/28 00:33:13;;;;;;;;;;;3.40;76.00;;;;;;5043423;28;87975;-40
2022/11/28 00:35:39;;;;;;;;;;;3.30;75.90;;;;;;5044147;28;87181;-39
2022/11/28 00:38:04;;;;;;;;;;;3.30;75.90;;;;;;5044400;28;87494;-39
2022/11/28 00:40:30;;;;;;;;;;;3.40;76.10;;;;;;5044344;28;87294;-39
2022/11/28 00:42:55;;;;;;;;;;;3.30;76.10;;;;;;5043967;28;87079;-39
2022/11/28 00:45:21;;;;;;;;;;;3.30;76.00;;;;;;5043519;28;87350;-39
2022/11/28 00:47:48;;;;;;;;;;;3.30;75.90;;;;;;5043026;28;89567;-39
2022/11/28 00:50:14;;;;;;;;;;;3.40;76.00;;;;;;5043858;28;87111;-39
2022/11/28 00:52:39;;;;;;;;;;;3.30;75.90;;;;;;5046396;27;87934;-39
2022/11/28 00:55:05;;;;;;;;;;;3.40;76.00;;;;;;5044169;28;87131;-39
2022/11/28 00:57:30;;;;;;;;;;;3.30;75.90;;;;;;5043722;27;87248;-39
2022/11/28 00:59:56;;;;;;;;;;;3.30;75.90;;;;;;5043296;28;89252;-39
2022/11/28 01:02:21;;;;;;;;;;;3.30;75.90;;;;;;5043964;28;87178;-39
2022/11/28 01:04:47;;;;;;;;;;;3.40;75.90;;;;;;5044015;27;87793;-39
2022/11/28 01:07:12;;;;;;;;;;;3.30;75.90;;;;;;5043441;28;88013;-39
2022/11/28 01:09:38;;;;;;;;;;;3.40;76.20;;;;;;5043855;28;87392;-39
2022/11/28 01:12:03;;;;;;;;;;;3.30;75.90;;;;;;5042875;28;87896;-39
2022/11/28 01:14:29;;;;;;;;;;;3.30;76.00;;;;;;5046183;28;87165;-38
2022/11/28 01:16:55;;;;;;;;;;;3.30;76.10;;;;;;5043723;28;87753;-39
2022/11/28 01:19:20;;;;;;;;;;;3.30;75.90;;;;;;5043217;28;88105;-39
2022/11/28 01:21:46;;;;;;;;;;;3.30;76.10;;;;;;5043666;28;87090;-39
2022/11/28 01:24:11;;;;;;;;;;;3.30;75.90;;;;;;5043623;27;86965;-39
2022/11/28 01:26:38;;;;;;;;;;;3.30;75.90;;;;;;5043187;28;88148;-39
2022/11/28 01:29:03;;;;;;;;;;;3.30;76.00;;;;;;5043449;28;86341;-39
2022/11/28 01:31:29;;;;;;;;;;;3.30;75.90;;;;;;5043283;28;86960;-39
2022/11/28 01:33:55;;;;;;;;;;;3.40;76.00;;;;;;5045979;28;87952;-39
2022/11/28 01:36:21;;;;;;;;;;;3.30;75.80;;;;;;5042439;27;88022;-39
2022/11/28 01:38:46;;;;;;;;;;;3.30;75.80;;;;;;5042707;28;89001;-39
2022/11/28 01:41:12;;;;;;;;;;;3.30;75.90;;;;;;5043334;28;87107;-39
2022/11/28 01:43:55;;;;;;;;;;;3.30;75.90;;;;;;5041902;28;87421;-39
2022/11/28 01:46:21;;;;;;;;;;;3.30;76.30;;;;;;5042262;28;88741;-39
2022/11/28 01:48:46;;;;;;;;;;;3.30;75.90;;;;;;5043328;28;87028;-39
2022/11/28 01:51:12;;;;;;;;;;;3.30;75.90;;;;;;5042943;28;87354;-39
2022/11/28 01:53:40;;;;;;;;;;;3.30;75.70;;;;;;5041671;28;90192;-39
2022/11/28 01:56:11;;;;;;;;;;;3.30;75.70;;;;;;5045468;28;86996;-39
2022/11/28 01:58:38;;;;;;;;;;;3.30;75.80;;;;;;5042590;28;87983;-39
2022/11/28 02:01:05;;;;;;;;;;;3.30;75.90;;;;;;5042163;28;87999;-39
2022/11/28 02:03:38;;;;;;;;;;;3.30;75.70;;;;;;5042852;27;88571;-39
2022/11/28 02:06:03;;;;;;;;;;;3.30;75.80;;;;;;5042373;28;88081;-39
2022/11/28 02:08:33;;;;;;;;;;;3.30;75.80;;;;;;5043099;28;87104;-39
2022/11/28 02:11:08;;;;;;;;;;;3.30;75.90;;;;;;5042791;28;87429;-39
2022/11/28 02:13:45;;;;;;;;;;;3.30;75.70;;;;;;5042500;28;88031;-39
2022/11/28 02:16:10;;;;;;;;;;;3.30;75.90;;;;;;5042884;28;87120;-39
2022/11/28 02:18:43;;;;;;;;;;;3.30;76.00;;;;;;5045697;28;87496;-39
2022/11/28 02:21:21;;;;;;;;;;;3.30;76.00;;;;;;5042461;28;87300;-39
2022/11/28 02:23:59;;;;;;;;;;;3.30;75.90;;;;;;5042785;27;87331;-39
2022/11/28 02:26:30;;;;;;;;;;;3.30;75.80;;;;;;5041587;28;88290;-39
2022/11/28 02:29:07;;;;;;;;;;;3.30;76.10;;;;;;5042730;28;87571;-39
2022/11/28 02:31:39;;;;;;;;;;;3.30;76.30;;;;;;5042591;27;87362;-39
2022/11/28 02:34:11;;;;;;;;;;;3.30;76.20;;;;;;5042318;28;88005;-39
2022/11/28 02:36:50;;;;;;;;;;;3.20;76.00;;;;;;5042782;28;86968;-39
2022/11/28 02:39:24;;;;;;;;;;;3.20;76.20;;;;;;5042160;27;88818;-39
2022/11/28 02:41:50;;;;;;;;;;;3.30;76.20;;;;;;5044986;28;88500;-39
2022/11/28 02:44:17;;;;;;;;;;;3.20;76.30;;;;;;5042025;27;87258;-39
2022/11/28 02:46:46;;;;;;;;;;;3.20;76.40;;;;;;5041790;28;89221;-39
2022/11/28 02:49:17;;;;;;;;;;;3.10;76.50;;;;;;5042327;28;87205;-39
2022/11/28 02:51:44;;;;;;;;;;;3.10;76.80;;;;;;5041857;28;87900;-39
2022/11/28 02:54:12;;;;;;;;;;;3.10;76.80;;;;;;5041886;28;87200;-39
2022/11/28 02:56:37;;;;;;;;;;;3.10;76.80;;;;;;5044602;27;87064;-39
2022/11/28 02:59:03;;;;;;;;;;;3.10;76.80;;;;;;5045896;28;87408;-39
2022/11/28 03:01:31;;;;;;;;;;;3.10;76.90;;;;;;5045582;28;88526;-39
2022/11/28 03:04:01;;;;;;;;;;;3.10;76.80;;;;;;5048518;28;87136;-39
2022/11/28 03:06:30;;;;;;;;;;;3.10;76.80;;;;;;5045375;28;88101;-39
2022/11/28 03:09:14;;;;;;;;;;;3.10;76.80;;;;;;5046124;28;86326;-39
2022/11/28 03:11:48;;;;;;;;;;;3.10;77.00;;;;;;5045616;27;87310;-39
2022/11/28 03:14:19;;;;;;;;;;;3.10;76.90;;;;;;5044898;28;88081;-39
2022/11/28 03:16:48;;;;;;;;;;;3.00;77.00;;;;;;5044954;28;88030;-39
2022/11/28 03:19:20;;;;;;;;;;;3.10;76.90;;;;;;5045523;27;88498;-39
2022/11/28 03:22:04;;;;;;;;;;;3.10;76.90;;;;;;5044605;28;89563;-39
2022/11/28 03:24:35;;;;;;;;;;;3.00;76.90;;;;;;5045433;27;87139;-39
2022/11/28 03:27:00;;;;;;;;;;;3.00;76.80;;;;;;5047940;28;87060;-39
2022/11/28 03:29:29;;;;;;;;;;;3.10;76.80;;;;;;5045364;28;87028;-39
2022/11/28 03:31:57;;;;;;;;;;;3.00;76.80;;;;;;5045118;28;87640;-39
2022/11/28 03:34:25;;;;;;;;;;;3.00;77.00;;;;;;5045015;28;86473;-39
2022/11/28 03:36:54;;;;;;;;;;;3.00;77.10;;;;;;5045004;28;87040;-39
2022/11/28 03:39:22;;;;;;;;;;;3.00;77.10;;;;;;5045179;27;88224;-39
2022/11/28 03:41:50;;;;;;;;;;;3.00;77.00;;;;;;5043974;28;88857;-39
2022/11/28 03:44:18;;;;;;;;;;;3.00;76.90;;;;;;5044700;28;87167;-39
2022/11/28 03:46:45;;;;;;;;;;;3.10;76.90;;;;;;5047723;28;87483;-39
2022/11/28 03:49:13;;;;;;;;;;;3.00;76.90;;;;;;5044833;28;87102;-39
2022/11/28 03:51:41;;;;;;;;;;;3.00;76.90;;;;;;5044522;28;87706;-39
2022/11/28 03:54:09;;;;;;;;;;;3.00;77.10;;;;;;5044355;28;88534;-39
2022/11/28 03:56:50;;;;;;;;;;;3.00;77.10;;;;;;5044534;28;87100;-39
2022/11/28 03:59:23;;;;;;;;;;;3.00;77.00;;;;;;5045312;27;87277;-39
2022/11/28 04:01:57;;;;;;;;;;;3.00;76.90;;;;;;5044388;28;88029;-39
2022/11/28 04:04:34;;;;;;;;;;;3.00;76.90;;;;;;5044920;28;87244;-39
2022/11/28 04:06:59;;;;;;;;;;;3.00;77.00;;;;;;5043269;27;87747;-39
2022/11/28 04:09:37;;;;;;;;;;;3.00;77.00;;;;;;5047139;28;88081;-39
2022/11/28 04:12:07;;;;;;;;;;;3.00;77.10;;;;;;5044464;28;87548;-39
2022/11/28 04:14:35;;;;;;;;;;;3.00;77.20;;;;;;5044451;28;87928;-39
2022/11/28 04:17:09;;;;;;;;;;;3.00;77.00;;;;;;5044525;28;86996;-39
2022/11/28 04:19:37;;;;;;;;;;;3.00;77.10;;;;;;5044458;27;87326;-39
2022/11/28 04:22:15;;;;;;;;;;;3.00;77.00;;;;;;5043956;28;87334;-39
2022/11/28 04:24:54;;;;;;;;;;;3.00;77.60;;;;;;5044734;28;86348;-39
2022/11/28 04:27:27;;;;;;;;;;;3.00;77.10;;;;;;5044506;27;87303;-39
2022/11/28 04:29:55;;;;;;;;;;;3.00;77.20;;;;;;5043933;28;89503;-39
2022/11/28 04:32:22;;;;;;;;;;;3.00;77.00;;;;;;5046501;28;88024;-39
2022/11/28 04:34:50;;;;;;;;;;;3.00;77.00;;;;;;5043836;28;87156;-39
2022/11/28 04:37:16;;;;;;;;;;;3.00;77.60;;;;;;5044190;28;87568;-39
2022/11/28 04:39:43;;;;;;;;;;;3.00;77.10;;;;;;5044235;27;87342;-39
2022/11/28 04:42:43;;;;;;;;;;;3.00;77.00;;;;;;5043643;28;89313;-39
2022/11/28 04:45:16;;;;;;;;;;;3.00;77.10;;;;;;5000857;28;87190;-39
2022/11/28 04:47:43;;;;;;;;;;;2.90;77.00;;;;;;5036975;28;87091;-39
2022/11/28 04:50:09;;;;;;;;;;;3.00;77.00;;;;;;5044386;28;87348;-39
2022/11/28 04:52:37;;;;;;;;;;;3.00;77.20;;;;;;5044024;28;86958;-39
2022/11/28 04:55:11;;;;;;;;;;;3.00;77.10;;;;;;5046553;28;86972;-39
2022/11/28 04:57:39;;;;;;;;;;;3.00;77.00;;;;;;5043179;28;88074;-39
2022/11/28 05:00:07;;;;;;;;;;;3.00;77.00;;;;;;5043968;28;89599;-39
2022/11/28 05:02:34;;;;;;;;;;;3.00;77.00;;;;;;5043349;28;87868;-39
2022/11/28 05:04:59;;;;;;;;;;;3.00;77.10;;;;;;5043748;28;87088;-39
2022/11/28 05:07:25;;;;;;;;;;;2.90;76.90;;;;;;5043845;27;87570;-39
2022/11/28 05:09:51;;;;;;;;;;;3.00;77.00;;;;;;5043442;28;88000;-39
2022/11/28 05:12:16;;;;;;;;;;;2.90;76.90;;;;;;5043239;28;87478;-39
2022/11/28 05:14:42;;;;;;;;;;;2.90;77.00;;;;;;5044048;27;87356;-39
2022/11/28 05:17:10;;;;;;;;;;;2.90;77.00;;;;;;5046305;28;88156;-39
2022/11/28 05:19:35;;;;;;;;;;;2.90;76.90;;;;;;5043184;27;87187;-39
2022/11/28 05:22:01;;;;;;;;;;;2.90;76.90;;;;;;5042516;28;88830;-39
2022/11/28 05:24:26;;;;;;;;;;;2.90;77.00;;;;;;5043703;28;87541;-39
2022/11/28 05:26:52;;;;;;;;;;;3.00;77.00;;;;;;5043653;28;86909;-39
2022/11/28 05:29:17;;;;;;;;;;;2.90;77.00;;;;;;5042796;28;89204;-39
2022/11/28 05:31:43;;;;;;;;;;;2.90;77.00;;;;;;5043106;28;87179;-39
2022/11/28 05:34:08;;;;;;;;;;;2.90;76.90;;;;;;5043438;27;87560;-39
2022/11/28 05:36:34;;;;;;;;;;;2.90;77.00;;;;;;5042977;28;87262;-39
2022/11/28 05:38:59;;;;;;;;;;;2.90;76.90;;;;;;5046582;28;86223;-39
2022/11/28 05:41:29;;;;;;;;;;;2.90;76.80;;;;;;5043040;28;87149;-39
2022/11/28 05:43:55;;;;;;;;;;;2.90;77.00;;;;;;5042962;28;87017;-39
2022/11/28 05:46:21;;;;;;;;;;;2.90;76.90;;;;;;5042106;27;88149;-39
2022/11/28 05:48:46;;;;;;;;;;;2.90;76.80;;;;;;5041106;28;90915;-39
2022/11/28 05:51:12;;;;;;;;;;;2.90;77.00;;;;;;5043220;28;87127;-39
2022/11/28 05:53:37;;;;;;;;;;;2.90;76.90;;;;;;5042992;28;87348;-39
2022/11/28 05:56:14;;;;;;;;;;;2.90;76.90;;;;;;5041011;28;91378;-39
2022/11/28 05:58:40;;;;;;;;;;;2.90;76.80;;;;;;5045650;28;87144;-39
2022/11/28 06:01:13;;;;;;;;;;;2.90;76.90;;;;;;5042660;28;87977;-39
2022/11/28 06:03:39;;;;;;;;;;;2.90;76.90;;;;;;5043414;28;86274;-39
2022/11/28 06:06:08;;;;;;;;;;;2.90;76.80;;;;;;5042799;27;87517;-39
2022/11/28 06:08:34;;;;;;;;;;;2.90;77.00;;;;;;5042416;28;88349;-39
2022/11/28 06:10:59;;;;;;;;;;;2.90;76.90;;;;;;5042064;28;88076;-39
2022/11/28 06:13:25;;;;;;;;;;;2.90;76.80;;;;;;5042709;28;87448;-39
2022/11/28 06:15:50;;;;;;;;;;;2.90;76.90;;;;;;5042608;28;87895;-39
2022/11/28 06:18:16;;;;;;;;;;;2.90;76.90;;;;;;5041244;28;87136;-39
2022/11/28 06:20:41;;;;;;;;;;;2.90;76.80;;;;;;5045378;27;87385;-39
2022/11/28 06:23:07;;;;;;;;;;;2.90;76.90;;;;;;5042748;28;87165;-39
2022/11/28 06:25:33;;;;;;;;;;;2.90;76.90;;;;;;5042367;27;87705;-39
2022/11/28 06:27:58;;;;;;;;;;;2.90;76.80;;;;;;5042580;28;87320;-39
2022/11/28 06:30:24;;;;;;;;;;;2.90;77.00;;;;;;5043527;27;87161;-39
2022/11/28 06:32:49;;;;;;;;;;;2.90;77.00;;;;;;5046436;27;87216;-39
2022/11/28 06:35:15;;;;;;;;;;;2.90;77.00;;;;;;5045155;28;89051;-39
2022/11/28 06:37:40;;;;;;;;;;;2.90;76.90;;;;;;5046266;28;87304;-39
2022/11/28 06:40:06;;;;;;;;;;;2.90;76.90;;;;;;5045976;28;87161;-39
2022/11/28 06:42:33;;;;;;;;;;;2.90;76.90;;;;;;5048484;28;87748;-39
2022/11/28 06:44:59;;;;;;;;;;;2.90;76.90;;;;;;5045584;27;87408;-39
2022/11/28 06:47:24;;;;;;;;;;;2.90;76.90;;;;;;5045511;28;88501;-39
2022/11/28 06:49:50;;;;;;;;;;;2.90;76.90;;;;;;5046068;28;87194;-39
2022/11/28 06:52:15;;;;;;;;;;;2.90;76.90;;;;;;5046443;28;87420;-39
2022/11/28 06:54:41;;;;;;;;;;;2.90;76.90;;;;;;5045245;28;89291;-39
2022/11/28 06:57:06;;;;;;;;;;;2.90;77.00;;;;;;5045294;28;87111;-39
2022/11/28 06:59:32;;;;;;;;;;;2.90;76.90;;;;;;5045306;28;87780;-39
2022/11/28 07:02:01;;;;;;;;;;;2.90;76.90;;;;;;5045639;28;87987;-39
2022/11/28 07:04:26;;;;;;;;;;;2.90;77.10;;;;;;5048461;28;87127;-39
2022/11/28 07:06:52;;;;;;;;;;;2.90;77.00;;;;;;5045444;28;88046;-39
2022/11/28 07:09:17;;;;;;;;;;;2.80;77.50;;;;;;5045831;28;87114;-39
2022/11/28 07:11:43;;;;;;;;;;;2.80;77.00;;;;;;5045564;28;88876;-39
2022/11/28 07:14:09;;;;;;;;;;;2.90;77.10;;;;;;5045085;28;88283;-39
2022/11/28 07:16:35;;;;;;;;;;;2.90;77.00;;;;;;5045931;28;86369;-39
2022/11/28 07:19:01;;;;;;;;;;;2.90;76.90;;;;;;5045227;27;88143;-38
2022/11/28 07:21:27;;;;;;;;;;;2.90;76.90;;;;;;5045031;28;87343;-38
2022/11/28 07:23:53;;;;;;;;;;;2.90;76.90;;;;;;5044797;28;88275;-38
2022/11/28 07:26:20;;;;;;;;;;;2.90;77.00;;;;;;5047719;27;88245;-39
2022/11/28 07:28:46;;;;;;;;;;;2.90;77.00;;;;;;5045314;28;87149;-39
2022/11/28 07:31:13;;;;;;;;;;;2.90;77.00;;;;;;5045335;27;87326;-39
2022/11/28 07:33:39;;;;;;;;;;;2.90;77.10;;;;;;5044720;27;89425;-39
2022/11/28 07:36:15;;;;;;;;;;;2.90;77.00;;;;;;5045125;28;87213;-39
2022/11/28 07:38:41;;;;;;;;;;;2.90;77.10;;;;;;5045265;27;87559;-39
2022/11/28 07:41:08;;;;;;;;;;;2.90;77.10;;;;;;5045189;27;87156;-39
2022/11/28 07:43:33;;;;;;;;;;;2.90;77.10;;;;;;5045074;28;87007;-39
2022/11/28 07:46:01;;;;;;;;;;;2.80;77.10;;;;;;5047320;27;87316;-39
2022/11/28 07:48:27;;;;;;;;;;;2.90;77.10;;;;;;5044281;28;87982;-39
2022/11/28 07:50:53;;;;;;;;;;;2.90;77.20;;;;;;5044872;28;88420;-39
2022/11/28 07:53:19;;;;;;;;;;;2.80;77.20;;;;;;5044548;28;89176;-39
2022/11/28 07:55:45;;;;;;;;;;;2.80;77.20;;;;;;5044619;28;87134;-39
2022/11/28 07:58:10;;;;;;;;;;;2.80;77.10;;;;;;5044892;28;87140;-39
2022/11/28 08:00:36;;;;;;;;;;;2.80;77.30;;;;;;5044369;28;87874;-39
2022/11/28 08:03:01;;;;;;;;;;;2.80;77.20;;;;;;5044855;28;87149;-39
2022/11/28 08:05:27;;;;;;;;;;;2.80;77.20;;;;;;5045297;28;87379;-39
2022/11/28 08:07:52;;;;;;;;;;;2.80;77.30;;;;;;5047432;28;88237;-39
2022/11/28 08:10:18;;;;;;;;;;;2.80;77.40;;;;;;5044671;28;87023;-39
2022/11/28 08:12:43;;;;;;;;;;;2.80;77.30;;;;;;5043448;28;89029;-39
2022/11/28 08:15:09;;;;;;;;;;;2.80;77.40;;;;;;5044551;28;87618;-39
2022/11/28 08:17:35;;;;;;;;;;;2.90;77.30;;;;;;5044503;28;87456;-39
2022/11/28 08:20:00;;;;;;;;;;;2.80;77.30;;;;;;5044354;28;88149;-39
2022/11/28 08:22:26;;;;;;;;;;;2.80;77.30;;;;;;5044458;28;87111;-39
2022/11/28 08:24:51;;;;;;;;;;;2.80;77.30;;;;;;5044419;27;87390;-39
2022/11/28 08:27:17;;;;;;;;;;;2.80;77.40;;;;;;5043868;28;88163;-39
2022/11/28 08:29:42;;;;;;;;;;;2.80;77.50;;;;;;5047749;28;86335;-39
2022/11/28 08:32:08;;;;;;;;;;;2.80;77.30;;;;;;5043739;28;87958;-39
2022/11/28 08:34:33;;;;;;;;;;;2.80;77.30;;;;;;5044348;28;87147;-39
2022/11/28 08:36:59;;;;;;;;;;;2.80;77.40;;;;;;5043558;28;87871;-39
2022/11/28 08:39:24;;;;;;;;;;;2.90;77.30;;;;;;5043657;28;89497;-39
2022/11/28 08:41:51;;;;;;;;;;;2.80;77.40;;;;;;5044042;28;87338;-39
2022/11/28 08:44:16;;;;;;;;;;;2.80;77.40;;;;;;5043659;27;87401;-39
2022/11/28 08:46:42;;;;;;;;;;;2.80;77.30;;;;;;5043892;28;88044;-39
2022/11/28 08:49:07;;;;;;;;;;;2.80;77.40;;;;;;5044078;28;86960;-39
2022/11/28 08:51:33;;;;;;;;;;;2.80;77.40;;;;;;5046617;28;87536;-39
2022/11/28 08:53:58;;;;;;;;;;;2.80;77.50;;;;;;5043727;28;86369;-39
2022/11/28 08:56:24;;;;;;;;;;;2.80;77.30;;;;;;5043866;28;87012;-39
2022/11/28 08:58:49;;;;;;;;;;;2.80;77.40;;;;;;5043371;28;88111;-39
2022/11/28 09:01:19;;;;;;;;;;;2.80;77.60;;;;;;5043446;28;88794;-39
2022/11/28 09:03:45;;;;;;;;;;;2.80;77.50;;;;;;5043760;27;88269;-39
2022/11/28 09:06:11;;;;;;;;;;;2.80;77.50;;;;;;5042961;28;89373;-39
2022/11/28 09:08:37;;;;;;;;;;;2.80;77.50;;;;;;5043905;28;86867;-39
2022/11/28 09:11:04;;;;;;;;;;;2.80;77.40;;;;;;5041896;28;87817;-39
2022/11/28 09:13:30;;;;;;;;;;;2.80;77.50;;;;;;5046323;28;87473;-39
2022/11/28 09:15:56;;;;;;;;;;;2.80;77.40;;;;;;5043920;28;87414;-39
2022/11/28 09:18:21;;;;;;;;;;;2.80;77.50;;;;;;5043645;28;88516;-39
2022/11/28 09:20:47;;;;;;;;;;;2.80;77.40;;;;;;5043223;28;87079;-39
2022/11/28 09:23:12;;;;;;;;;;;2.90;77.50;;;;;;5043646;28;87300;-39
2022/11/28 09:25:38;;;;;;;;;;;2.80;77.40;;;;;;5042202;28;89018;-39
2022/11/28 09:28:04;;;;;;;;;;;2.90;78.10;;;;;;5043561;28;87311;-39
2022/11/28 09:30:30;;;;;;;;;;;2.80;77.50;;;;;;5043472;27;87276;-39
2022/11/28 09:32:55;;;;;;;;;;;2.90;77.60;;;;;;5043063;28;87970;-39
2022/11/28 09:38:05;;;;;;;;;;;2.90;77.60;;;;;;5042556;28;87692;-39
2022/11/28 09:40:36;;;;;;;;;;;2.90;77.70;;;;;;5042927;28;87672;-39
2022/11/28 09:43:03;;;;;;;;;;;2.90;77.70;;;;;;5043463;27;88557;-39
2022/11/28 09:45:29;;;;;;;;;;;2.90;77.70;;;;;;5042299;28;89334;-39
2022/11/28 09:47:56;;;;;;;;;;;2.90;77.70;;;;;;5043134;28;87064;-39
2022/11/28 09:50:27;;;;;;;;;;;2.90;77.70;;;;;;5042365;27;88108;-39
2022/11/28 09:52:59;;;;;;;;;;;2.80;77.70;;;;;;5042526;28;87979;-39
2022/11/28 09:55:42;;;;;;;;;;;2.80;77.70;;;;;;5045716;28;87042;-38
2022/11/28 09:58:14;;;;;;;;;;;2.90;77.70;;;;;;5042481;28;86896;-39
2022/11/28 10:01:00;;;;;;;;;;;2.80;77.70;;;;;;5043169;28;86988;-39
2022/11/28 10:03:37;;;;;;;;;;;2.90;77.80;;;;;;5041890;28;87494;-39
2022/11/28 10:06:03;;;;;;;;;;;2.90;77.90;;;;;;5041184;28;88195;-39
2022/11/28 10:08:47;;;;;;;;;;;2.90;77.80;;;;;;5043401;28;86504;-39
2022/11/28 10:11:13;;;;;;;;;;;2.90;77.70;;;;;;5042958;27;86950;-39
2022/11/28 10:13:50;;;;;;;;;;;2.90;77.80;;;;;;5042599;28;88092;-39
2022/11/28 10:16:28;;;;;;;;;;;2.90;77.80;;;;;;5042001;28;87969;-39
2022/11/28 10:18:55;;;;;;;;;;;2.80;77.80;;;;;;5045267;28;87641;-39
2022/11/28 10:21:30;;;;;;;;;;;2.90;78.00;;;;;;5042752;28;87044;-39
2022/11/28 10:23:58;;;;;;;;;;;2.80;77.80;;;;;;5042704;27;87380;-39
2022/11/28 10:26:27;;;;;;;;;;;2.80;77.80;;;;;;5042172;28;87373;-39
2022/11/28 10:28:54;;;;;;;;;;;2.90;77.90;;;;;;5042449;28;87226;-39
2022/11/28 10:31:29;;;;;;;;;;;2.90;78.00;;;;;;5042473;27;87426;-39
2022/11/28 10:33:57;;;;;;;;;;;2.80;77.90;;;;;;5042717;28;87355;-39
2022/11/28 10:36:45;;;;;;;;;;;2.90;77.90;;;;;;5042473;28;87118;-39
2022/11/28 10:39:11;;;;;;;;;;;2.90;77.90;;;;;;5042594;27;87675;-39
2022/11/28 10:41:41;;;;;;;;;;;2.90;77.80;;;;;;5044380;28;88914;-39
2022/11/28 10:44:17;;;;;;;;;;;2.90;77.70;;;;;;5042018;28;88398;-39
2022/11/28 10:47:05;;;;;;;;;;;2.90;77.90;;;;;;5042094;28;88205;-39
2022/11/28 10:49:49;;;;;;;;;;;2.90;77.90;;;;;;5042757;28;87011;-39
2022/11/28 10:52:35;;;;;;;;;;;2.90;77.90;;;;;;5042525;27;87142;-39
2022/11/28 10:55:06;;;;;;;;;;;2.90;77.90;;;;;;5033458;28;88146;-39
2022/11/28 10:57:37;;;;;;;;;;;2.90;77.80;;;;;;5041911;28;87083;-39
2022/11/28 11:00:02;;;;;;;;;;;2.90;77.90;;;;;;5042788;28;87362;-39
2022/11/28 11:02:43;;;;;;;;;;;2.90;78.00;;;;;;5042062;28;87907;-39
2022/11/28 11:05:14;;;;;;;;;;;2.90;77.90;;;;;;5045216;28;86974;-39
2022/11/28 11:07:42;;;;;;;;;;;2.90;77.90;;;;;;5041207;28;89181;-39
2022/11/28 11:10:13;;;;;;;;;;;2.90;77.90;;;;;;5041834;28;88061;-39
2022/11/28 11:12:39;;;;;;;;;;;2.90;77.90;;;;;;5041998;27;87550;-39
2022/11/28 11:15:25;;;;;;;;;;;2.90;78.40;;;;;;5041730;28;87997;-39
2022/11/28 11:17:50;;;;;;;;;;;2.90;77.80;;;;;;5036800;28;87158;-39
2022/11/28 11:20:22;;;;;;;;;;;2.90;77.90;;;;;;5045256;27;88626;-39
2022/11/28 11:22:58;;;;;;;;;;;2.90;78.00;;;;;;5045025;28;88159;-39
2022/11/28 11:25:24;;;;;;;;;;;2.90;77.90;;;;;;5045659;28;86385;-39
2022/11/28 11:28:01;;;;;;;;;;;2.90;78.10;;;;;;5047907;27;87007;-39
2022/11/28 11:30:30;;;;;;;;;;;2.90;77.90;;;;;;5045185;28;87111;-39
2022/11/28 11:32:57;;;;;;;;;;;2.90;77.90;;;;;;5044643;28;88005;-39
2022/11/28 11:35:24;;;;;;;;;;;2.90;78.00;;;;;;5044530;27;87651;-39
2022/11/28 11:37:50;;;;;;;;;;;2.90;77.90;;;;;;5045128;28;87100;-39
2022/11/28 11:40:24;;;;;;;;;;;2.90;77.90;;;;;;5045262;28;87046;-39
2022/11/28 11:43:00;;;;;;;;;;;3.00;77.90;;;;;;5044630;28;89269;-39
2022/11/28 11:45:26;;;;;;;;;;;2.90;77.80;;;;;;5044581;28;87198;-39
2022/11/28 11:47:51;;;;;;;;;;;2.90;77.90;;;;;;5044732;27;88633;-39
2022/11/28 11:50:18;;;;;;;;;;;2.90;77.90;;;;;;5048073;28;87367;-39
2022/11/28 11:52:58;;;;;;;;;;;3.00;78.00;;;;;;5044964;27;87011;-39
2022/11/28 11:55:24;;;;;;;;;;;3.00;77.90;;;;;;5044584;28;88021;-39
2022/11/28 11:57:51;;;;;;;;;;;3.00;77.90;;;;;;5043681;28;87966;-39
2022/11/28 12:00:19;;;;;;;;;;;3.00;77.90;;;;;;5044702;27;87424;-39
2022/11/28 12:02:45;;;;;;;;;;;3.00;77.80;;;;;;5044257;28;89266;-39
2022/11/28 12:05:10;;;;;;;;;;;3.00;77.90;;;;;;5044754;28;87137;-39
2022/11/28 12:07:44;;;;;;;;;;;3.00;78.00;;;;;;5044954;27;87340;-39
2022/11/28 12:10:11;;;;;;;;;;;3.00;77.90;;;;;;5047399;28;87331;-39
2022/11/28 12:12:37;;;;;;;;;;;3.00;77.90;;;;;;5044905;28;88275;-39
2022/11/28 12:15:10;;;;;;;;;;;3.00;77.90;;;;;;5044800;28;87346;-39
2022/11/28 12:17:58;;;;;;;;;;;3.00;77.80;;;;;;5042417;28;87021;-39
2022/11/28 12:20:44;;;;;;;;;;;3.00;78.00;;;;;;5044173;27;87300;-39
2022/11/28 12:23:25;;;;;;;;;;;3.00;77.90;;;;;;5043444;28;89132;-39
2022/11/28 12:26:04;;;;;;;;;;;3.00;77.90;;;;;;5044448;28;87152;-39
2022/11/28 12:28:36;;;;;;;;;;;3.00;78.10;;;;;;5043593;27;87414;-39
2022/11/28 12:31:09;;;;;;;;;;;3.00;78.00;;;;;;5044005;28;88168;-39
2022/11/28 12:33:35;;;;;;;;;;;3.00;78.00;;;;;;5047231;28;86996;-39
2022/11/28 12:36:03;;;;;;;;;;;3.00;78.10;;;;;;5043710;28;88071;-39
2022/11/28 12:38:47;;;;;;;;;;;3.00;78.00;;;;;;5044450;28;87164;-39
2022/11/28 12:41:28;;;;;;;;;;;3.00;78.00;;;;;;5044717;27;87379;-39
2022/11/28 12:43:56;;;;;;;;;;;3.00;77.90;;;;;;5043723;28;87936;-39
2022/11/28 12:46:24;;;;;;;;;;;3.00;78.00;;;;;;5043670;28;87715;-39
2022/11/28 12:49:19;;;;;;;;;;;3.00;77.90;;;;;;5043665;27;87955;-39
2022/11/28 12:51:47;;;;;;;;;;;3.00;77.80;;;;;;5005535;28;88003;-39
2022/11/28 12:54:13;;;;;;;;;;;3.10;78.00;;;;;;5044134;28;86926;-39
2022/11/28 12:56:41;;;;;;;;;;;3.00;77.90;;;;;;5046781;28;86977;-39
2022/11/28 12:59:23;;;;;;;;;;;3.00;78.00;;;;;;5043592;28;87114;-39
2022/11/28 13:01:51;;;;;;;;;;;3.10;77.90;;;;;;5043804;27;88817;-39
2022/11/28 13:04:16;;;;;;;;;;;3.10;77.80;;;;;;5043515;28;88148;-39
2022/11/28 13:07:05;;;;;;;;;;;3.10;77.70;;;;;;5044369;28;86552;-39
2022/11/28 13:09:32;;;;;;;;;;;3.10;77.90;;;;;;5043655;27;88253;-39
2022/11/28 13:12:10;;;;;;;;;;;3.10;78.00;;;;;;5043225;28;87970;-39
2022/11/28 13:14:42;;;;;;;;;;;3.00;78.00;;;;;;5042989;28;88031;-39
2022/11/28 13:17:13;;;;;;;;;;;3.00;78.20;;;;;;5043960;27;88697;-39
2022/11/28 13:19:53;;;;;;;;;;;3.00;78.60;;;;;;5046341;28;88012;-39
2022/11/28 13:22:22;;;;;;;;;;;3.00;78.00;;;;;;5043594;27;87252;-39
2022/11/28 13:24:54;;;;;;;;;;;3.00;78.10;;;;;;5042840;28;89346;-39
2022/11/28 13:27:21;;;;;;;;;;;3.00;78.30;;;;;;5043205;28;87012;-39
2022/11/28 13:29:55;;;;;;;;;;;3.00;78.30;;;;;;5043190;28;89104;-39
2022/11/28 13:32:20;;;;;;;;;;;3.00;78.30;;;;;;5043274;28;87501;-39
2022/11/28 13:34:47;;;;;;;;;;;3.00;78.30;;;;;;5043580;28;87191;-39
2022/11/28 13:37:16;;;;;;;;;;;3.00;78.20;;;;;;5043506;27;87999;-39
2022/11/28 13:39:51;;;;;;;;;;;3.00;78.20;;;;;;5041875;28;88957;-39
2022/11/28 13:42:28;;;;;;;;;;;3.00;78.30;;;;;;5046117;28;87125;-39
2022/11/28 13:44:53;;;;;;;;;;;3.00;78.40;;;;;;5042675;28;88044;-39
2022/11/28 13:47:22;;;;;;;;;;;3.00;78.40;;;;;;5042903;28;87103;-39
2022/11/28 13:49:47;;;;;;;;;;;3.00;78.40;;;;;;5043162;28;87372;-39
2022/11/28 13:52:16;;;;;;;;;;;3.00;78.40;;;;;;5042764;28;87510;-39
2022/11/28 13:54:43;;;;;;;;;;;3.00;78.50;;;;;;5043157;28;87285;-39
2022/11/28 13:57:23;;;;;;;;;;;3.00;78.50;;;;;;5043382;27;87568;-39
2022/11/28 13:59:57;;;;;;;;;;;3.00;78.50;;;;;;5042823;28;88013;-39
2022/11/28 14:02:35;;;;;;;;;;;3.00;78.40;;;;;;5042849;28;87107;-39
2022/11/28 14:05:01;;;;;;;;;;;3.00;78.50;;;;;;5044749;27;88360;-39
2022/11/28 14:07:28;;;;;;;;;;;3.00;78.50;;;;;;5042820;28;87079;-39
2022/11/28 14:10:02;;;;;;;;;;;3.00;78.50;;;;;;5042620;27;88819;-39
2022/11/28 14:12:32;;;;;;;;;;;3.00;78.50;;;;;;5042375;28;88300;-39
2022/11/28 14:15:16;;;;;;;;;;;3.00;78.60;;;;;;5042113;28;87090;-39
2022/11/28 14:17:45;;;;;;;;;;;3.00;78.50;;;;;;5043001;27;87381;-39
2022/11/28 14:20:10;;;;;;;;;;;3.00;78.50;;;;;;5042403;28;87765;-39
2022/11/28 14:22:54;;;;;;;;;;;3.00;78.50;;;;;;5043055;28;86203;-39
2022/11/28 14:25:27;;;;;;;;;;;3.00;78.50;;;;;;5045300;27;87200;-39
2022/11/28 14:28:04;;;;;;;;;;;3.10;78.30;;;;;;5042588;28;87096;-39
2022/11/28 14:30:29;;;;;;;;;;;3.10;78.30;;;;;;5042072;28;87918;-39
2022/11/28 14:33:06;;;;;;;;;;;3.10;78.40;;;;;;5041948;28;88146;-39
2022/11/28 14:35:50;;;;;;;;;;;3.10;78.40;;;;;;5042381;28;87028;-38
2022/11/28 14:38:30;;;;;;;;;;;3.10;78.10;;;;;;5042807;28;87416;-39
2022/11/28 14:40:56;;;;;;;;;;;3.10;78.20;;;;;;5042093;28;87938;-39
2022/11/28 14:43:28;;;;;;;;;;;3.20;78.00;;;;;;5041994;28;87140;-39
2022/11/28 14:46:12;;;;;;;;;;;3.30;77.50;;;;;;5042207;28;87500;-39